Time;durP1;ratioP1;P1;durP2;ratioP2;P2;SDS_P1;SDS_P2;PMS_P1;PMS_P2;Temp;Humidity;BMP_temperature;BMP_pressure;BME280_temperature;BME280_humidity;BME280_pressure;Samples;Min_cycle;Max_cycle;Signal;HPM_P1;HPM_P2
2023/06/24 00:00:22;;;;;;;5.78;5.28;;;19.20;99.90;;;;;;2075464;28;21032;-71
2023/06/24 00:01:23;;;;;;;9.30;6.32;;;19.20;99.90;;;;;;2075478;28;20022;-71
2023/06/24 00:02:24;;;;;;;5.85;5.22;;;19.20;99.90;;;;;;2076444;28;20049;-70
2023/06/24 00:03:24;;;;;;;6.28;5.68;;;19.10;99.90;;;;;;2075879;28;20092;-71
2023/06/24 00:04:25;;;;;;;7.13;5.35;;;19.10;99.90;;;;;;2076026;28;20025;-71
2023/06/24 00:05:25;;;;;;;6.93;5.70;;;19.10;99.90;;;;;;2075945;28;20038;-70
2023/06/24 00:06:26;;;;;;;5.78;5.28;;;19.10;99.90;;;;;;2076359;28;20112;-70
2023/06/24 00:07:26;;;;;;;7.05;6.45;;;19.10;99.90;;;;;;2075722;28;20040;-70
2023/06/24 00:08:33;;;;;;;8.75;5.85;;;19.10;99.90;;;;;;2075817;28;20033;-70
2023/06/24 00:09:34;;;;;;;6.88;5.88;;;19.10;99.90;;;;;;2072970;28;20029;-70
2023/06/24 00:10:35;;;;;;;7.45;5.95;;;19.00;99.90;;;;;;2073933;28;20041;-70
2023/06/24 00:11:36;;;;;;;6.22;4.85;;;19.00;99.90;;;;;;2076543;28;20022;-70
2023/06/24 00:12:38;;;;;;;6.63;6.03;;;19.00;99.90;;;;;;2075470;28;20030;-71
2023/06/24 00:13:40;;;;;;;6.00;5.38;;;19.00;99.90;;;;;;2076327;28;20021;-70
2023/06/24 00:14:40;;;;;;;8.48;5.85;;;19.00;99.90;;;;;;2077047;28;20017;-71
2023/06/24 00:15:44;;;;;;;7.72;5.32;;;19.00;99.90;;;;;;2075139;28;20025;-71
2023/06/24 00:16:46;;;;;;;6.63;5.72;;;19.00;99.90;;;;;;2074559;28;20029;-70
2023/06/24 00:17:46;;;;;;;6.13;5.63;;;19.00;99.90;;;;;;2073459;28;20527;-70
2023/06/24 00:18:47;;;;;;;7.22;6.40;;;19.00;99.90;;;;;;2076142;28;20095;-70
2023/06/24 00:19:47;;;;;;;6.57;5.97;;;19.00;99.90;;;;;;2073646;28;20021;-71
2023/06/24 00:20:49;;;;;;;6.30;5.70;;;18.90;99.90;;;;;;2075342;28;20028;-71
2023/06/24 00:21:53;;;;;;;7.95;6.05;;;18.90;99.90;;;;;;2075372;28;20087;-70
2023/06/24 00:22:53;;;;;;;9.20;5.95;;;18.90;99.90;;;;;;2075216;28;20029;-71
2023/06/24 00:23:54;;;;;;;8.35;5.80;;;18.90;99.90;;;;;;2075482;28;20041;-70
2023/06/24 00:24:54;;;;;;;6.10;5.55;;;18.90;99.90;;;;;;2075806;28;20048;-70
2023/06/24 00:25:55;;;;;;;7.68;6.10;;;18.90;99.90;;;;;;2074732;28;20469;-71
2023/06/24 00:26:56;;;;;;;7.15;6.55;;;18.80;99.90;;;;;;2073839;28;20509;-70
2023/06/24 00:27:57;;;;;;;6.72;6.03;;;18.90;99.90;;;;;;2075057;28;20037;-70
2023/06/24 00:28:58;;;;;;;6.25;5.63;;;18.90;99.90;;;;;;2074876;28;20030;-71
2023/06/24 00:29:59;;;;;;;6.63;5.93;;;18.90;99.90;;;;;;2073867;28;20473;-71
2023/06/24 00:31:01;;;;;;;7.15;6.45;;;18.80;99.90;;;;;;2074489;28;20753;-71
2023/06/24 00:32:01;;;;;;;6.47;5.80;;;18.80;99.90;;;;;;2075770;28;20032;-70
2023/06/24 00:33:02;;;;;;;7.05;6.30;;;18.80;99.90;;;;;;2076228;28;20080;-70
2023/06/24 00:34:04;;;;;;;7.47;6.05;;;18.80;99.90;;;;;;2074742;28;20104;-71
2023/06/24 00:35:05;;;;;;;6.90;6.30;;;18.80;99.90;;;;;;2076339;28;20073;-70
2023/06/24 00:36:11;;;;;;;8.25;6.80;;;18.80;99.90;;;;;;2075029;28;20029;-70
2023/06/24 00:37:12;;;;;;;7.72;6.70;;;18.80;99.90;;;;;;2076435;28;20052;-70
2023/06/24 00:38:12;;;;;;;6.95;6.25;;;18.80;99.90;;;;;;2075815;28;20032;-70
2023/06/24 00:39:13;;;;;;;7.05;6.35;;;18.80;99.90;;;;;;2076388;28;20018;-70
2023/06/24 00:40:16;;;;;;;8.20;5.95;;;18.80;99.90;;;;;;2075461;28;20079;-71
2023/06/24 00:41:20;;;;;;;6.25;5.75;;;18.80;99.90;;;;;;2075082;28;20080;-70
2023/06/24 00:42:21;;;;;;;6.85;6.25;;;18.70;99.90;;;;;;2074900;28;20035;-70
2023/06/24 00:43:21;;;;;;;6.90;6.30;;;18.80;99.90;;;;;;2073597;28;20061;-70
2023/06/24 00:44:22;;;;;;;7.30;6.05;;;18.70;99.90;;;;;;2075527;28;20026;-70
2023/06/24 00:45:23;;;;;;;8.18;6.22;;;18.70;99.90;;;;;;2074128;28;20041;-70
2023/06/24 00:46:25;;;;;;;5.93;5.35;;;18.70;99.90;;;;;;2075611;28;20075;-70
2023/06/24 00:47:26;;;;;;;7.70;6.40;;;18.70;99.90;;;;;;2076437;28;20079;-71
2023/06/24 00:48:26;;;;;;;6.78;6.18;;;18.70;99.90;;;;;;2074856;28;20037;-70
2023/06/24 00:49:27;;;;;;;6.88;6.20;;;18.70;99.90;;;;;;2075176;28;20038;-71
2023/06/24 00:50:27;;;;;;;6.85;6.25;;;18.70;99.90;;;;;;2076307;28;20029;-70
2023/06/24 00:51:30;;;;;;;6.65;5.85;;;18.70;99.90;;;;;;2075930;28;20036;-70
2023/06/24 00:52:31;;;;;;;5.57;5.07;;;18.70;99.90;;;;;;2072724;28;20061;-70
2023/06/24 00:53:31;;;;;;;5.82;5.35;;;18.70;99.90;;;;;;2073954;28;20474;-71
2023/06/24 00:54:32;;;;;;;5.93;5.43;;;18.70;99.90;;;;;;2076373;28;20036;-70
2023/06/24 00:55:33;;;;;;;6.28;5.50;;;18.70;99.90;;;;;;2074443;28;20105;-70
2023/06/24 00:56:38;;;;;;;6.55;5.88;;;18.60;99.90;;;;;;2074954;28;20037;-70
2023/06/24 00:57:40;;;;;;;5.95;5.45;;;18.60;99.90;;;;;;2074767;28;20067;-71
2023/06/24 00:58:42;;;;;;;7.45;6.75;;;18.60;99.90;;;;;;2076200;28;20021;-71
2023/06/24 00:59:45;;;;;;;6.57;5.90;;;18.60;99.90;;;;;;2075564;28;20045;-71
2023/06/24 01:00:48;;;;;;;6.65;5.97;;;18.70;99.90;;;;;;2075096;28;20024;-71
2023/06/24 01:01:52;;;;;;;8.95;6.22;;;18.60;99.90;;;;;;2074243;28;20025;-71
2023/06/24 01:02:53;;;;;;;6.03;5.43;;;18.60;99.90;;;;;;2076256;28;20433;-71
2023/06/24 01:03:53;;;;;;;7.40;6.60;;;18.60;99.90;;;;;;2076330;28;20014;-71
2023/06/24 01:04:54;;;;;;;7.55;5.90;;;18.60;99.90;;;;;;2074903;28;20045;-71
2023/06/24 01:05:55;;;;;;;7.50;6.47;;;18.60;99.90;;;;;;2075671;28;20484;-71
2023/06/24 01:06:57;;;;;;;6.78;6.15;;;18.60;99.90;;;;;;2074756;28;20056;-71
2023/06/24 01:07:58;;;;;;;6.50;5.90;;;18.60;99.90;;;;;;2075648;28;20645;-71
2023/06/24 01:09:02;;;;;;;8.00;6.30;;;18.60;99.90;;;;;;2075141;28;20033;-71
2023/06/24 01:10:05;;;;;;;6.95;6.15;;;18.50;99.90;;;;;;2072608;28;20697;-71
2023/06/24 01:11:06;;;;;;;8.32;5.93;;;18.60;99.90;;;;;;2076363;28;20655;-71
2023/06/24 01:12:07;;;;;;;7.32;6.65;;;18.50;99.90;;;;;;2075769;28;20473;-71
2023/06/24 01:13:08;;;;;;;7.43;5.93;;;18.50;99.90;;;;;;2074787;28;20018;-71
2023/06/24 01:14:08;;;;;;;6.70;5.95;;;18.50;99.90;;;;;;2076394;28;20040;-71
2023/06/24 01:15:10;;;;;;;6.45;5.78;;;18.50;99.90;;;;;;2075032;28;20105;-71
2023/06/24 01:16:18;;;;;;;11.50;6.93;;;18.50;99.90;;;;;;2074968;28;20025;-71
2023/06/24 01:17:59;;;;;;;9.65;6.47;;;18.50;99.90;;;;;;2075476;28;20076;-71
2023/06/24 01:19:11;;;;;;;6.50;5.88;;;18.50;99.90;;;;;;2067335;28;20038;-71
2023/06/24 01:20:23;;;;;;;5.72;5.22;;;18.40;99.90;;;;;;2077662;28;20064;-71
2023/06/24 01:22:11;;;;;;;6.85;6.25;;;18.40;99.90;;;;;;2076634;28;20212;-71
2023/06/24 01:23:33;;;;;;;5.97;5.38;;;18.40;99.90;;;;;;2075979;28;20034;-71
2023/06/24 01:24:47;;;;;;;6.85;6.25;;;18.40;99.90;;;;;;2078527;28;20048;-71
2023/06/24 01:26:01;;;;;;;7.00;6.30;;;18.30;99.90;;;;;;2069641;28;20053;-71
2023/06/24 01:27:25;;;;;;;6.22;5.53;;;18.30;99.90;;;;;;2073135;28;20104;-71
2023/06/24 01:28:35;;;;;;;6.97;5.80;;;18.30;99.90;;;;;;2072967;28;20021;-71
2023/06/24 01:30:23;;;;;;;7.28;5.80;;;18.30;99.90;;;;;;2073629;28;20034;-71
2023/06/24 01:31:59;;;;;;;6.65;5.72;;;18.30;99.90;;;;;;2074925;28;20385;-71
2023/06/24 01:33:04;;;;;;;8.07;5.95;;;18.20;99.90;;;;;;2070877;28;20048;-71
2023/06/24 01:34:32;;;;;;;6.60;5.80;;;18.20;99.90;;;;;;2074635;28;20033;-71
2023/06/24 01:35:35;;;;;;;6.57;5.90;;;18.30;99.90;;;;;;2076605;28;20029;-71
2023/06/24 01:36:40;;;;;;;6.20;5.60;;;18.20;99.90;;;;;;2075773;28;20072;-71
2023/06/24 01:37:43;;;;;;;5.93;5.40;;;18.20;99.90;;;;;;2074796;28;20412;-71
2023/06/24 01:38:52;;;;;;;6.38;5.60;;;18.20;99.90;;;;;;2074799;28;20025;-71
2023/06/24 01:40:13;;;;;;;6.57;6.07;;;18.20;99.90;;;;;;2075081;28;20037;-71
2023/06/24 01:41:18;;;;;;;7.05;6.35;;;18.20;99.90;;;;;;2075020;28;20021;-71
2023/06/24 01:42:21;;;;;;;6.32;5.68;;;18.20;99.90;;;;;;2074403;28;20022;-71
2023/06/24 01:43:23;;;;;;;9.10;5.82;;;18.20;99.90;;;;;;2074643;28;20087;-71
2023/06/24 01:44:27;;;;;;;6.85;6.15;;;18.20;99.90;;;;;;2075405;28;20022;-71
2023/06/24 01:45:50;;;;;;;10.60;6.38;;;18.20;99.90;;;;;;2074375;28;20017;-71
2023/06/24 01:46:54;;;;;;;7.97;6.35;;;18.30;99.90;;;;;;2074771;28;20117;-71
2023/06/24 01:48:15;;;;;;;6.40;5.90;;;18.20;99.90;;;;;;2075145;28;20033;-71
2023/06/24 01:49:17;;;;;;;6.25;5.63;;;18.20;99.90;;;;;;2074907;28;20037;-71
2023/06/24 01:50:21;;;;;;;6.40;5.80;;;18.20;99.90;;;;;;2074034;28;20029;-71
2023/06/24 01:51:23;;;;;;;9.57;6.85;;;18.20;99.90;;;;;;2075482;28;20030;-71
2023/06/24 01:52:27;;;;;;;6.88;6.32;;;18.20;99.90;;;;;;2072853;28;20034;-71
2023/06/24 01:53:32;;;;;;;7.88;5.50;;;18.20;99.90;;;;;;2073694;28;20033;-71
2023/06/24 01:54:35;;;;;;;6.18;5.57;;;18.20;99.90;;;;;;2075540;28;20386;-71
2023/06/24 01:55:37;;;;;;;7.43;6.22;;;18.20;99.90;;;;;;2073314;28;20056;-71
2023/06/24 01:56:42;;;;;;;9.10;6.55;;;18.20;99.90;;;;;;2074151;28;20018;-71
2023/06/24 01:57:44;;;;;;;7.65;5.88;;;18.20;99.90;;;;;;2074755;28;20436;-71
2023/06/24 01:58:47;;;;;;;9.40;6.75;;;18.20;99.90;;;;;;2074348;28;20021;-71
2023/06/24 01:59:49;;;;;;;6.25;5.65;;;18.20;99.90;;;;;;2072794;28;20053;-71
2023/06/24 02:00:52;;;;;;;5.50;5.00;;;18.20;99.90;;;;;;2074139;28;20489;-71
2023/06/24 02:01:53;;;;;;;9.07;5.63;;;18.20;99.90;;;;;;2073912;28;20030;-71
2023/06/24 02:02:55;;;;;;;5.88;5.38;;;18.20;99.90;;;;;;2073883;28;20021;-71
2023/06/24 02:03:56;;;;;;;7.40;6.70;;;18.20;99.90;;;;;;2074488;28;20099;-71
2023/06/24 02:04:59;;;;;;;6.10;4.90;;;18.20;99.90;;;;;;2074382;28;20033;-71
2023/06/24 02:06:01;;;;;;;6.68;6.03;;;18.20;99.90;;;;;;2073744;28;20053;-71
2023/06/24 02:07:04;;;;;;;9.35;6.28;;;18.20;99.90;;;;;;2073982;28;20026;-71
2023/06/24 02:08:07;;;;;;;5.60;5.10;;;18.20;99.90;;;;;;2074519;28;20041;-71
2023/06/24 02:09:09;;;;;;;6.95;5.68;;;18.20;99.90;;;;;;2074901;28;20053;-71
2023/06/24 02:10:10;;;;;;;7.45;5.82;;;18.20;99.90;;;;;;2075215;28;20030;-71
2023/06/24 02:11:12;;;;;;;10.90;6.05;;;18.20;99.90;;;;;;2075077;28;20013;-71
2023/06/24 02:12:14;;;;;;;6.50;5.90;;;18.20;99.90;;;;;;2078366;28;20036;-71
2023/06/24 02:13:16;;;;;;;5.75;5.07;;;18.20;99.90;;;;;;2075864;28;20029;-71
2023/06/24 02:14:18;;;;;;;6.25;5.50;;;18.20;99.90;;;;;;2074326;28;20021;-71
2023/06/24 02:15:21;;;;;;;8.30;6.20;;;18.20;99.90;;;;;;2074148;28;20026;-71
2023/06/24 02:16:22;;;;;;;6.85;5.28;;;18.20;99.90;;;;;;2072743;28;20423;-71
2023/06/24 02:17:25;;;;;;;10.70;5.65;;;18.20;99.90;;;;;;2074337;28;20441;-71
2023/06/24 02:18:27;;;;;;;6.55;5.85;;;18.20;99.90;;;;;;2073635;28;20045;-71
2023/06/24 02:19:30;;;;;;;7.50;5.40;;;18.20;99.90;;;;;;2072434;28;20422;-71
2023/06/24 02:20:32;;;;;;;10.98;5.80;;;18.20;99.90;;;;;;2072234;28;20025;-71
2023/06/24 02:21:35;;;;;;;7.38;5.40;;;18.20;99.90;;;;;;2074347;28;20891;-71
2023/06/24 02:22:37;;;;;;;6.03;5.43;;;18.20;99.90;;;;;;2074468;28;20033;-71
2023/06/24 02:23:38;;;;;;;5.90;5.30;;;18.30;99.90;;;;;;2074447;28;20017;-71
2023/06/24 02:24:41;;;;;;;7.85;6.28;;;18.20;99.90;;;;;;2074244;28;20561;-71
2023/06/24 02:25:43;;;;;;;6.63;5.90;;;18.20;99.90;;;;;;2075824;28;20037;-71
2023/06/24 02:26:45;;;;;;;7.72;5.93;;;18.20;99.90;;;;;;2076343;28;20030;-71
2023/06/24 02:27:46;;;;;;;6.20;5.55;;;18.20;99.90;;;;;;2077139;28;20059;-71
2023/06/24 02:28:49;;;;;;;6.57;5.30;;;18.20;99.90;;;;;;2075808;28;20021;-71
2023/06/24 02:29:51;;;;;;;6.65;5.30;;;18.20;99.90;;;;;;2075254;28;20390;-71
2023/06/24 02:30:52;;;;;;;6.47;5.63;;;18.20;99.90;;;;;;2075712;28;20079;-71
2023/06/24 02:31:53;;;;;;;6.97;6.28;;;18.20;99.90;;;;;;2073588;28;20030;-71
2023/06/24 02:32:54;;;;;;;8.15;6.20;;;18.20;99.90;;;;;;2076455;28;20529;-71
2023/06/24 02:33:54;;;;;;;6.25;5.65;;;18.20;99.90;;;;;;2076288;28;20414;-71
2023/06/24 02:34:58;;;;;;;7.75;5.70;;;18.20;99.90;;;;;;2073650;28;20029;-71
2023/06/24 02:35:58;;;;;;;7.05;5.70;;;18.20;99.90;;;;;;2075479;28;20029;-71
2023/06/24 02:36:59;;;;;;;6.63;5.45;;;18.20;99.90;;;;;;2074818;28;20034;-71
2023/06/24 02:37:59;;;;;;;6.43;5.82;;;18.20;99.90;;;;;;2076060;28;20363;-71
2023/06/24 02:39:00;;;;;;;6.38;5.78;;;18.20;99.90;;;;;;2076206;28;20041;-71
2023/06/24 02:40:01;;;;;;;6.40;5.80;;;18.20;99.90;;;;;;2074344;28;20057;-71
2023/06/24 02:41:04;;;;;;;5.93;5.40;;;18.20;99.90;;;;;;2073501;28;20037;-71
2023/06/24 02:42:04;;;;;;;5.93;5.00;;;18.20;99.90;;;;;;2073886;28;20080;-71
2023/06/24 02:43:05;;;;;;;6.05;5.55;;;18.20;99.90;;;;;;2074859;28;20087;-71
2023/06/24 02:44:06;;;;;;;6.25;5.70;;;18.20;99.90;;;;;;2073847;28;20489;-71
2023/06/24 02:45:07;;;;;;;7.50;5.85;;;18.20;99.90;;;;;;2073481;28;20037;-71
2023/06/24 02:46:08;;;;;;;7.22;6.05;;;18.20;99.90;;;;;;2076580;28;20140;-71
2023/06/24 02:47:12;;;;;;;6.78;5.70;;;18.20;99.90;;;;;;2074663;28;20041;-71
2023/06/24 02:48:14;;;;;;;6.65;6.03;;;18.20;99.90;;;;;;2075364;28;20099;-71
2023/06/24 02:49:17;;;;;;;6.78;6.07;;;18.10;99.90;;;;;;2075104;28;20030;-71
2023/06/24 02:50:19;;;;;;;7.25;6.30;;;18.20;99.90;;;;;;2075225;28;20033;-71
2023/06/24 02:51:20;;;;;;;7.28;6.18;;;18.10;99.90;;;;;;2074504;28;20028;-71
2023/06/24 02:52:20;;;;;;;6.00;5.50;;;18.10;99.90;;;;;;2073903;28;20026;-71
2023/06/24 02:53:21;;;;;;;6.70;6.00;;;18.10;99.90;;;;;;2074273;28;20104;-71
2023/06/24 02:54:21;;;;;;;6.47;5.88;;;18.10;99.90;;;;;;2074729;28;20096;-71
2023/06/24 02:55:22;;;;;;;7.03;6.25;;;18.10;99.90;;;;;;2072570;28;20036;-71
2023/06/24 02:56:24;;;;;;;6.93;6.22;;;18.10;99.90;;;;;;2073428;28;20102;-71
2023/06/24 02:57:26;;;;;;;6.43;5.82;;;18.10;99.90;;;;;;2073091;28;20109;-71
2023/06/24 02:58:31;;;;;;;6.90;5.93;;;18.10;99.90;;;;;;2075599;28;20347;-71
2023/06/24 02:59:32;;;;;;;7.25;6.32;;;18.10;99.90;;;;;;2074349;28;20028;-71
2023/06/24 03:00:33;;;;;;;8.23;6.43;;;18.10;99.90;;;;;;2074928;28;20022;-71
2023/06/24 03:01:38;;;;;;;7.30;6.35;;;18.10;99.90;;;;;;2073732;28;20598;-71
2023/06/24 03:02:39;;;;;;;7.35;6.18;;;18.10;99.90;;;;;;2076049;28;20105;-71
2023/06/24 03:03:42;;;;;;;7.55;5.32;;;18.10;99.90;;;;;;2072937;28;20021;-71
2023/06/24 03:04:42;;;;;;;6.20;5.30;;;18.10;99.90;;;;;;2077198;28;20018;-71
2023/06/24 03:05:44;;;;;;;7.18;6.47;;;18.10;99.90;;;;;;2077899;28;20029;-71
2023/06/24 03:06:45;;;;;;;6.47;5.68;;;18.10;99.90;;;;;;2074444;28;20029;-71
2023/06/24 03:07:46;;;;;;;7.35;5.97;;;18.10;99.90;;;;;;2073378;28;20497;-71
2023/06/24 03:08:48;;;;;;;5.97;5.20;;;18.10;99.90;;;;;;2074525;28;20084;-71
2023/06/24 03:09:48;;;;;;;8.30;6.18;;;18.10;99.90;;;;;;2073529;28;20087;-71
2023/06/24 03:10:49;;;;;;;6.60;5.88;;;18.10;99.90;;;;;;2073126;28;20076;-71
2023/06/24 03:11:49;;;;;;;8.30;5.53;;;18.00;99.90;;;;;;2074952;28;20052;-71
2023/06/24 03:12:50;;;;;;;6.40;5.45;;;18.00;99.90;;;;;;2073239;28;20105;-71
2023/06/24 03:13:51;;;;;;;7.75;6.00;;;18.00;99.90;;;;;;2073491;28;20034;-71
2023/06/24 03:14:51;;;;;;;6.38;5.75;;;18.00;99.90;;;;;;2073031;28;20022;-71
2023/06/24 03:15:52;;;;;;;8.13;6.13;;;18.00;99.90;;;;;;2074403;28;20079;-71
2023/06/24 03:16:53;;;;;;;6.28;5.68;;;18.00;99.90;;;;;;2074440;28;20116;-71
2023/06/24 03:17:53;;;;;;;6.40;5.80;;;18.00;99.90;;;;;;2074140;28;20025;-71
2023/06/24 03:18:54;;;;;;;6.53;5.95;;;18.00;99.90;;;;;;2074048;28;20038;-71
2023/06/24 03:19:54;;;;;;;6.25;5.65;;;18.00;99.90;;;;;;2073715;28;20037;-71
2023/06/24 03:20:55;;;;;;;8.70;6.60;;;18.00;99.90;;;;;;2073877;28;20064;-71
2023/06/24 03:21:56;;;;;;;6.82;6.22;;;18.00;99.90;;;;;;2075612;28;20053;-71
2023/06/24 03:22:56;;;;;;;7.97;6.55;;;18.00;99.90;;;;;;2075306;28;20052;-71
2023/06/24 03:23:58;;;;;;;7.13;6.43;;;18.00;99.90;;;;;;2074359;28;20132;-71
2023/06/24 03:24:59;;;;;;;12.02;7.38;;;18.00;99.90;;;;;;2073985;28;20026;-71
2023/06/24 03:25:59;;;;;;;9.13;7.07;;;18.00;99.90;;;;;;2074407;28;20569;-71
2023/06/24 03:27:00;;;;;;;7.57;6.85;;;18.00;99.90;;;;;;2073804;28;20079;-71
2023/06/24 03:28:03;;;;;;;6.65;5.72;;;18.00;99.90;;;;;;2075400;28;20030;-71
2023/06/24 03:29:04;;;;;;;8.38;6.00;;;18.00;99.90;;;;;;2074124;28;20029;-71
2023/06/24 03:30:05;;;;;;;6.50;5.80;;;18.00;99.90;;;;;;2074652;28;20517;-71
2023/06/24 03:31:05;;;;;;;6.07;5.57;;;18.00;99.90;;;;;;2073153;28;20441;-71
2023/06/24 03:32:06;;;;;;;6.68;5.70;;;18.00;99.90;;;;;;2075981;28;20109;-71
2023/06/24 03:33:07;;;;;;;6.93;5.70;;;18.00;99.90;;;;;;2075972;28;20026;-71
2023/06/24 03:34:08;;;;;;;7.03;5.78;;;18.00;99.90;;;;;;2075361;28;20125;-71
2023/06/24 03:35:08;;;;;;;6.18;5.68;;;18.00;99.90;;;;;;2076959;28;20029;-71
2023/06/24 03:36:09;;;;;;;9.30;6.15;;;18.00;99.90;;;;;;2078978;28;20108;-71
2023/06/24 03:37:10;;;;;;;7.13;6.35;;;18.00;99.90;;;;;;2079129;28;20500;-71
2023/06/24 03:38:11;;;;;;;7.28;6.15;;;18.00;99.90;;;;;;2075617;28;20048;-71
2023/06/24 03:39:12;;;;;;;6.18;5.35;;;18.00;99.90;;;;;;2074765;28;20032;-71
2023/06/24 03:40:12;;;;;;;6.45;5.75;;;18.10;99.90;;;;;;2074149;28;20121;-71
2023/06/24 03:41:13;;;;;;;5.95;5.43;;;18.10;99.90;;;;;;2076106;28;20021;-71
2023/06/24 03:42:14;;;;;;;6.07;5.57;;;18.10;99.90;;;;;;2074362;28;20026;-71
2023/06/24 03:43:14;;;;;;;7.47;5.55;;;18.10;99.90;;;;;;2076965;28;20026;-71
2023/06/24 03:44:15;;;;;;;6.60;5.82;;;18.10;99.90;;;;;;2076516;28;20120;-71
2023/06/24 03:45:15;;;;;;;7.40;6.60;;;18.10;99.90;;;;;;2079115;28;20450;-71
2023/06/24 03:46:16;;;;;;;7.22;5.72;;;18.10;99.90;;;;;;2077057;28;20511;-71
2023/06/24 03:47:17;;;;;;;11.50;6.68;;;18.00;99.90;;;;;;2074173;28;20036;-71
2023/06/24 03:48:17;;;;;;;7.15;6.45;;;18.10;99.90;;;;;;2076333;28;20036;-71
2023/06/24 03:49:18;;;;;;;8.30;6.40;;;18.10;99.90;;;;;;2076040;28;20033;-71
2023/06/24 03:50:18;;;;;;;6.75;5.63;;;18.10;99.90;;;;;;2072781;28;20080;-71
2023/06/24 03:51:19;;;;;;;7.75;5.85;;;18.00;99.90;;;;;;2075593;28;20026;-71
2023/06/24 03:52:20;;;;;;;6.80;5.38;;;18.10;99.90;;;;;;2076230;28;20025;-71
2023/06/24 03:53:20;;;;;;;7.40;6.30;;;18.10;99.90;;;;;;2074110;28;20034;-71
2023/06/24 03:54:21;;;;;;;6.63;6.03;;;18.10;99.90;;;;;;2076126;28;20427;-71
2023/06/24 03:55:21;;;;;;;7.35;6.60;;;18.10;99.90;;;;;;2075151;28;20030;-71
2023/06/24 03:56:22;;;;;;;7.53;6.80;;;18.10;99.90;;;;;;2076526;28;20105;-71
2023/06/24 03:57:22;;;;;;;9.85;6.78;;;18.10;99.90;;;;;;2074704;28;20025;-71
2023/06/24 03:58:23;;;;;;;6.70;6.10;;;18.10;99.90;;;;;;2074507;28;20013;-71
2023/06/24 03:59:23;;;;;;;8.85;6.43;;;18.10;99.90;;;;;;2075958;28;20089;-71
2023/06/24 04:00:24;;;;;;;9.75;7.10;;;18.10;99.90;;;;;;2074805;28;20463;-71
2023/06/24 04:01:24;;;;;;;8.45;6.90;;;18.10;99.90;;;;;;2076595;28;20583;-71
2023/06/24 04:02:26;;;;;;;10.05;6.32;;;18.10;99.90;;;;;;2081994;28;20152;-71
2023/06/24 04:03:27;;;;;;;9.90;6.55;;;18.10;99.90;;;;;;2081990;28;20037;-71
2023/06/24 04:04:28;;;;;;;9.07;7.60;;;18.20;99.90;;;;;;2076771;28;20038;-71
2023/06/24 04:05:28;;;;;;;7.55;6.85;;;18.10;99.90;;;;;;2076698;28;20022;-71
2023/06/24 04:06:29;;;;;;;8.27;6.47;;;18.10;99.90;;;;;;2076207;28;20521;-71
2023/06/24 04:07:30;;;;;;;7.97;7.25;;;18.20;99.90;;;;;;2076614;28;20085;-71
2023/06/24 04:08:31;;;;;;;9.05;7.32;;;18.10;99.90;;;;;;2078665;28;20108;-71
2023/06/24 04:09:34;;;;;;;8.40;7.22;;;18.20;99.90;;;;;;2082139;28;20033;-71
2023/06/24 04:10:34;;;;;;;8.15;7.00;;;18.20;99.90;;;;;;2074774;28;20056;-71
2023/06/24 04:11:35;;;;;;;7.30;6.60;;;18.20;99.90;;;;;;2074843;28;20033;-71
2023/06/24 04:12:36;;;;;;;7.60;6.43;;;18.20;99.90;;;;;;2075598;28;20100;-71
2023/06/24 04:13:36;;;;;;;7.30;6.47;;;18.30;99.90;;;;;;2074336;28;20029;-71
2023/06/24 04:14:37;;;;;;;7.88;7.10;;;18.30;99.90;;;;;;2075195;28;20018;-71
2023/06/24 04:15:37;;;;;;;8.18;6.68;;;18.40;99.90;;;;;;2075341;28;20083;-71
2023/06/24 04:16:38;;;;;;;6.93;6.30;;;18.40;99.90;;;;;;2075358;28;20112;-71
2023/06/24 04:17:38;;;;;;;11.15;7.28;;;18.50;99.90;;;;;;2077341;28;20049;-71
2023/06/24 04:18:39;;;;;;;7.35;6.65;;;18.50;99.90;;;;;;2077124;28;20103;-71
2023/06/24 04:19:40;;;;;;;8.15;6.90;;;18.60;99.90;;;;;;2075642;28;20096;-71
2023/06/24 04:20:41;;;;;;;10.05;7.15;;;18.60;99.90;;;;;;2072044;28;20021;-71
2023/06/24 04:21:41;;;;;;;7.05;6.35;;;18.70;99.90;;;;;;2075186;28;20184;-71
2023/06/24 04:22:43;;;;;;;7.53;6.70;;;18.70;99.90;;;;;;2075500;28;20049;-71
2023/06/24 04:23:43;;;;;;;7.50;6.70;;;18.80;99.90;;;;;;2074492;28;20048;-71
2023/06/24 04:24:44;;;;;;;8.27;6.20;;;18.90;99.90;;;;;;2074711;28;20100;-71
2023/06/24 04:25:44;;;;;;;8.38;6.32;;;19.00;99.90;;;;;;2075261;28;20080;-71
2023/06/24 04:26:45;;;;;;;7.32;6.57;;;19.10;99.90;;;;;;2073001;28;20030;-71
2023/06/24 04:27:45;;;;;;;8.98;6.30;;;19.30;99.90;;;;;;2075974;28;20036;-71
2023/06/24 04:28:46;;;;;;;7.10;6.03;;;19.30;99.90;;;;;;2076541;28;20018;-71
2023/06/24 04:29:46;;;;;;;7.05;6.40;;;19.40;99.90;;;;;;2073940;28;20041;-71
2023/06/24 04:30:47;;;;;;;13.30;6.28;;;19.40;99.90;;;;;;2075708;28;20025;-71
2023/06/24 04:31:47;;;;;;;7.00;6.22;;;19.40;99.90;;;;;;2076690;28;20157;-71
2023/06/24 04:32:48;;;;;;;8.23;6.20;;;19.50;99.90;;;;;;2076146;28;20022;-71
2023/06/24 04:33:49;;;;;;;6.38;5.78;;;19.50;99.90;;;;;;2074679;28;20032;-71
2023/06/24 04:34:49;;;;;;;6.40;5.80;;;19.60;99.90;;;;;;2074752;28;20101;-71
2023/06/24 04:35:51;;;;;;;6.57;5.80;;;19.50;99.90;;;;;;2074461;28;20018;-71
2023/06/24 04:36:51;;;;;;;7.88;6.07;;;19.60;99.90;;;;;;2074528;28;20025;-71
2023/06/24 04:37:52;;;;;;;10.77;6.28;;;19.60;99.90;;;;;;2074773;28;20017;-71
2023/06/24 04:38:53;;;;;;;6.30;5.75;;;19.60;99.90;;;;;;2074667;28;20017;-71
2023/06/24 04:39:53;;;;;;;6.65;5.60;;;19.60;99.90;;;;;;2073790;28;20029;-71
2023/06/24 04:40:54;;;;;;;6.63;6.03;;;19.60;99.90;;;;;;2075723;28;20026;-71
2023/06/24 04:41:54;;;;;;;6.80;6.07;;;19.70;99.90;;;;;;2075359;28;20056;-71
2023/06/24 04:42:55;;;;;;;6.22;5.57;;;19.70;99.90;;;;;;2075639;28;20048;-71
2023/06/24 04:43:55;;;;;;;6.32;5.72;;;19.70;99.90;;;;;;2075499;28;20669;-71
2023/06/24 04:44:56;;;;;;;6.20;5.60;;;19.70;99.90;;;;;;2075119;28;20432;-71
2023/06/24 04:45:56;;;;;;;6.38;5.65;;;19.70;99.90;;;;;;2075439;28;20816;-71
2023/06/24 04:46:57;;;;;;;6.22;5.63;;;19.70;99.90;;;;;;2074929;28;20029;-71
2023/06/24 04:47:57;;;;;;;7.60;6.07;;;19.70;99.90;;;;;;2075738;28;20084;-71
2023/06/24 04:48:58;;;;;;;8.60;5.53;;;19.70;99.90;;;;;;2075776;28;20033;-71
2023/06/24 04:49:59;;;;;;;9.07;5.75;;;19.70;99.90;;;;;;2074838;28;20370;-71
2023/06/24 04:50:59;;;;;;;9.30;6.40;;;19.80;99.90;;;;;;2075113;28;20033;-71
2023/06/24 04:52:01;;;;;;;7.68;5.10;;;19.80;99.90;;;;;;2075446;28;20033;-71
2023/06/24 04:53:01;;;;;;;8.55;6.00;;;19.80;99.90;;;;;;2075038;28;21857;-70
2023/06/24 04:54:03;;;;;;;7.18;5.70;;;19.80;99.90;;;;;;2075427;28;20403;-70
2023/06/24 04:55:04;;;;;;;6.35;5.68;;;19.80;99.90;;;;;;2075928;28;20025;-70
2023/06/24 04:56:04;;;;;;;6.60;5.57;;;19.90;99.90;;;;;;2076017;28;20028;-70
2023/06/24 04:57:08;;;;;;;6.05;5.28;;;19.90;99.90;;;;;;2073158;28;20371;-71
2023/06/24 04:58:09;;;;;;;6.88;5.70;;;19.90;99.90;;;;;;2073883;28;20040;-71
2023/06/24 04:59:09;;;;;;;6.78;5.18;;;19.90;99.90;;;;;;2078715;28;20030;-71
2023/06/24 05:00:10;;;;;;;7.78;5.18;;;19.90;99.90;;;;;;2076341;28;20036;-71
2023/06/24 05:01:11;;;;;;;8.85;5.65;;;19.90;99.90;;;;;;2075232;28;20736;-71
2023/06/24 05:02:12;;;;;;;9.95;5.00;;;20.00;99.90;;;;;;2076048;28;20026;-71
2023/06/24 05:03:12;;;;;;;6.80;5.40;;;20.00;99.90;;;;;;2075675;28;20041;-71
2023/06/24 05:04:13;;;;;;;7.15;5.70;;;20.00;99.90;;;;;;2074708;28;20040;-71
2023/06/24 05:05:14;;;;;;;7.93;5.57;;;20.00;99.90;;;;;;2074227;28;20064;-71
2023/06/24 05:06:14;;;;;;;6.40;5.47;;;20.00;99.90;;;;;;2074711;28;20018;-71
2023/06/24 05:07:15;;;;;;;7.70;5.20;;;20.00;99.90;;;;;;2075038;28;20046;-71
2023/06/24 05:08:16;;;;;;;6.85;5.50;;;20.10;99.90;;;;;;2076661;28;20152;-71
2023/06/24 05:09:17;;;;;;;6.10;5.50;;;20.10;99.90;;;;;;2074257;28;20100;-71
2023/06/24 05:10:17;;;;;;;5.47;4.90;;;20.20;99.90;;;;;;2073998;28;20460;-71
2023/06/24 05:11:18;;;;;;;6.20;5.63;;;20.20;99.90;;;;;;2074965;28;20030;-71
2023/06/24 05:12:18;;;;;;;6.85;5.53;;;20.20;99.90;;;;;;2075010;28;20048;-71
2023/06/24 05:13:19;;;;;;;6.05;5.22;;;20.30;99.90;;;;;;2072875;28;20037;-71
2023/06/24 05:14:19;;;;;;;7.78;5.70;;;20.30;99.90;;;;;;2074363;28;20079;-71
2023/06/24 05:15:20;;;;;;;6.18;5.38;;;20.30;99.90;;;;;;2075696;28;20025;-71
2023/06/24 05:16:20;;;;;;;7.15;5.43;;;20.30;99.90;;;;;;2075443;28;20029;-71
2023/06/24 05:17:21;;;;;;;5.95;5.10;;;20.40;99.90;;;;;;2074092;28;20466;-71
2023/06/24 05:18:21;;;;;;;6.65;5.38;;;20.40;99.90;;;;;;2075235;28;20528;-71
2023/06/24 05:19:22;;;;;;;6.22;5.22;;;20.40;99.90;;;;;;2075630;28;20450;-71
2023/06/24 05:20:22;;;;;;;5.55;5.05;;;20.50;99.90;;;;;;2073291;28;20026;-71
2023/06/24 05:21:23;;;;;;;7.22;5.00;;;20.50;99.90;;;;;;2073588;28;20033;-71
2023/06/24 05:22:23;;;;;;;5.90;5.07;;;20.50;99.90;;;;;;2073346;28;20118;-71
2023/06/24 05:23:24;;;;;;;5.82;5.05;;;20.60;99.90;;;;;;2074256;28;20033;-71
2023/06/24 05:24:24;;;;;;;6.38;5.65;;;20.60;99.90;;;;;;2074634;28;20459;-71